Time;durP1;ratioP1;P1;durP2;ratioP2;P2;SDS_P1;SDS_P2;PMS_P1;PMS_P2;Temp;Humidity;BMP_temperature;BMP_pressure;BME280_temperature;BME280_humidity;BME280_pressure;Samples;Min_cycle;Max_cycle;Signal;HPM_P1;HPM_P2
2023/09/15 00:15:29;;;;;;;2.50;2.30;;;22.40;66.10;;;;;;597650;23;20745;-90
2023/09/15 00:18:17;;;;;;;2.30;1.70;;;22.30;66.00;;;;;;4986309;28;20461;-90
2023/09/15 00:21:05;;;;;;;2.00;1.73;;;22.40;66.10;;;;;;4989276;28;20477;-88
2023/09/15 00:23:52;;;;;;;2.03;1.83;;;22.30;65.80;;;;;;4958732;28;20471;-88
2023/09/15 00:26:39;;;;;;;2.10;1.90;;;22.30;65.90;;;;;;4970583;28;20461;-89
2023/09/15 00:29:26;;;;;;;2.27;2.07;;;22.30;65.80;;;;;;4973364;28;20538;-88
2023/09/15 00:32:14;;;;;;;1.90;1.63;;;22.30;65.70;;;;;;4969700;28;20976;-90
2023/09/15 00:35:01;;;;;;;4.27;1.90;;;22.30;66.00;;;;;;4968163;28;20458;-88
2023/09/15 00:37:50;;;;;;;2.10;1.90;;;22.30;65.80;;;;;;4973730;28;20489;-89
2023/09/15 00:40:37;;;;;;;2.17;1.97;;;22.30;65.90;;;;;;4967022;28;20474;-91
2023/09/15 00:43:23;;;;;;;2.10;1.90;;;22.30;65.90;;;;;;4969573;28;20458;-89
2023/09/15 00:46:12;;;;;;;2.97;2.67;;;22.30;65.80;;;;;;4961070;28;20462;-90
2023/09/15 00:49:01;;;;;;;3.40;2.33;;;22.30;65.80;;;;;;4961593;28;20446;-88
2023/09/15 00:51:48;;;;;;;1.90;1.80;;;22.30;65.80;;;;;;4969946;28;20525;-88
2023/09/15 00:54:36;;;;;;;1.90;1.70;;;22.30;65.70;;;;;;4966674;28;20498;-89
2023/09/15 00:57:25;;;;;;;2.57;2.13;;;22.30;65.70;;;;;;4967919;28;20469;-89
2023/09/15 01:00:14;;;;;;;2.30;1.80;;;22.30;65.50;;;;;;4966079;28;20879;-89
2023/09/15 01:03:02;;;;;;;2.60;2.27;;;22.30;65.70;;;;;;4977113;28;20450;-91
2023/09/15 01:05:50;;;;;;;2.23;2.03;;;22.30;65.50;;;;;;4958776;28;20713;-88
2023/09/15 01:08:37;;;;;;;2.17;1.97;;;22.30;65.50;;;;;;4963490;28;20457;-90
2023/09/15 01:11:26;;;;;;;2.23;1.90;;;22.30;65.50;;;;;;4973523;28;20467;-89
2023/09/15 01:14:13;;;;;;;3.23;2.57;;;22.30;65.30;;;;;;4967078;28;20470;-92
2023/09/15 01:17:08;;;;;;;2.27;2.03;;;22.30;65.30;;;;;;4979491;28;20603;-90
2023/09/15 01:20:06;;;;;;;1.93;1.73;;;22.30;65.30;;;;;;4976901;28;20462;-89
2023/09/15 01:23:32;;;;;;;2.67;2.07;;;22.20;66.40;;;;;;4971204;28;20513;-90
2023/09/15 01:26:51;;;;;;;2.23;1.87;;;22.20;65.20;;;;;;4917160;28;20476;-90
2023/09/15 01:29:43;;;;;;;2.10;1.90;;;22.20;65.30;;;;;;4966775;28;20824;-88
2023/09/15 01:32:31;;;;;;;2.13;1.80;;;22.20;65.20;;;;;;4970825;28;20860;-88
2023/09/15 01:35:19;;;;;;;2.70;2.30;;;22.20;65.00;;;;;;4974960;28;20574;-89
2023/09/15 01:38:05;;;;;;;2.27;2.07;;;22.20;64.80;;;;;;4967367;28;20462;-90
2023/09/15 01:40:52;;;;;;;2.30;2.07;;;22.20;64.90;;;;;;4969381;28;20858;-89
2023/09/15 01:43:39;;;;;;;3.00;1.97;;;22.20;64.80;;;;;;4966915;28;20446;-90
2023/09/15 01:46:27;;;;;;;2.00;1.80;;;22.20;65.00;;;;;;4971272;28;20544;-91
2023/09/15 01:49:14;;;;;;;1.80;1.50;;;22.20;64.90;;;;;;4963449;28;20460;-89
2023/09/15 01:52:02;;;;;;;2.00;1.80;;;22.20;65.00;;;;;;4973833;28;20830;-87
2023/09/15 01:54:51;;;;;;;1.93;1.67;;;22.20;65.10;;;;;;4972976;28;20875;-87
2023/09/15 01:57:38;;;;;;;2.17;1.97;;;22.10;64.90;;;;;;4965078;28;20874;-90
2023/09/15 02:00:33;;;;;;;2.10;1.90;;;22.20;65.20;;;;;;4967466;28;21052;-89
2023/09/15 02:03:21;;;;;;;2.80;1.87;;;22.20;65.10;;;;;;4966922;28;20453;-87
2023/09/15 02:06:08;;;;;;;2.40;2.20;;;22.20;65.20;;;;;;4970312;28;20442;-87
2023/09/15 02:08:55;;;;;;;1.70;1.40;;;22.10;65.00;;;;;;4974154;28;20490;-88
2023/09/15 02:11:41;;;;;;;2.13;1.93;;;22.10;64.80;;;;;;4988961;28;20465;-89
2023/09/15 02:14:28;;;;;;;3.10;2.20;;;22.10;64.90;;;;;;4978187;28;20469;-90
2023/09/15 02:17:15;;;;;;;1.80;1.70;;;22.10;64.80;;;;;;4974177;28;20498;-88
2023/09/15 02:20:12;;;;;;;2.70;2.30;;;22.10;64.70;;;;;;4962737;28;20704;-86
2023/09/15 02:23:03;;;;;;;2.00;1.80;;;22.10;64.70;;;;;;4972461;28;20818;-87
2023/09/15 02:25:50;;;;;;;2.77;2.23;;;22.10;64.70;;;;;;4968622;28;20511;-88
2023/09/15 02:28:37;;;;;;;1.53;1.40;;;22.10;64.70;;;;;;4970642;28;20605;-87
2023/09/15 02:31:26;;;;;;;2.30;2.10;;;22.10;64.70;;;;;;4956521;28;20536;-50
2023/09/15 02:34:13;;;;;;;2.57;2.10;;;22.10;64.50;;;;;;4938999;29;20479;-50
2023/09/15 02:37:03;;;;;;;2.20;2.00;;;22.10;64.50;;;;;;4931453;28;20499;-51
2023/09/15 02:39:49;;;;;;;1.80;1.70;;;22.10;64.50;;;;;;4926279;29;20969;-51
2023/09/15 02:42:36;;;;;;;1.97;1.77;;;22.00;64.30;;;;;;4938214;28;20508;-49
2023/09/15 02:45:23;;;;;;;3.60;2.37;;;22.00;64.40;;;;;;4959078;28;20530;-50
2023/09/15 02:48:10;;;;;;;2.40;2.20;;;22.00;64.40;;;;;;4942490;28;21094;-52
2023/09/15 02:50:58;;;;;;;2.53;1.80;;;22.00;64.50;;;;;;4951723;28;20684;-50
2023/09/15 02:53:47;;;;;;;2.67;2.07;;;22.00;64.60;;;;;;4957685;28;20461;-51
2023/09/15 02:56:34;;;;;;;2.20;1.97;;;22.00;64.70;;;;;;4959446;28;20480;-50
2023/09/15 02:59:21;;;;;;;1.53;1.37;;;22.00;64.40;;;;;;4937816;28;20524;-52
2023/09/15 03:02:12;;;;;;;2.63;1.80;;;22.00;64.50;;;;;;4938541;28;20843;-50
2023/09/15 03:05:03;;;;;;;2.00;1.80;;;22.00;64.50;;;;;;4937017;28;20464;-51
2023/09/15 03:07:50;;;;;;;2.00;1.80;;;22.00;64.20;;;;;;4943734;28;20898;-50
2023/09/15 03:10:38;;;;;;;3.20;2.03;;;22.00;64.50;;;;;;4935272;28;20973;-50
2023/09/15 03:13:24;;;;;;;2.20;2.00;;;21.90;64.40;;;;;;4943718;28;20668;-49
2023/09/15 03:16:12;;;;;;;3.70;1.60;;;21.90;64.30;;;;;;4934746;28;20487;-51
2023/09/15 03:19:01;;;;;;;2.07;1.87;;;21.90;64.30;;;;;;4956745;28;20456;-49
2023/09/15 03:21:48;;;;;;;1.77;1.67;;;21.90;64.30;;;;;;4926373;28;21029;-49
2023/09/15 03:24:36;;;;;;;2.00;1.40;;;21.90;64.30;;;;;;4939402;28;20432;-50
2023/09/15 03:27:25;;;;;;;2.20;2.00;;;21.90;64.20;;;;;;4939258;28;20476;-50
2023/09/15 03:30:12;;;;;;;2.20;2.00;;;21.90;64.20;;;;;;4941722;28;20471;-50
2023/09/15 03:32:59;;;;;;;1.73;1.63;;;21.90;64.20;;;;;;4943245;28;20836;-51
2023/09/15 03:35:46;;;;;;;2.10;1.70;;;21.90;64.30;;;;;;4942461;28;20478;-50
2023/09/15 03:38:33;;;;;;;1.87;1.67;;;21.90;65.70;;;;;;4962186;28;20455;-50
2023/09/15 03:41:21;;;;;;;2.27;1.60;;;21.90;64.20;;;;;;4956250;28;20508;-50
2023/09/15 03:44:09;;;;;;;2.20;1.80;;;21.90;64.20;;;;;;4944092;28;20999;-50
2023/09/15 03:46:56;;;;;;;1.77;1.67;;;21.80;64.10;;;;;;4927402;28;20812;-51
2023/09/15 03:49:43;;;;;;;2.07;1.80;;;21.80;63.90;;;;;;4937461;28;20439;-51
2023/09/15 03:52:30;;;;;;;2.70;2.10;;;21.90;64.30;;;;;;4920304;28;20967;-50
2023/09/15 03:55:17;;;;;;;1.93;1.73;;;21.80;64.20;;;;;;4922937;29;20479;-49
2023/09/15 03:58:04;;;;;;;1.40;1.30;;;21.80;64.30;;;;;;4926619;29;20816;-50
2023/09/15 04:00:53;;;;;;;1.90;1.50;;;21.80;64.40;;;;;;4926992;29;21847;-50
2023/09/15 04:03:40;;;;;;;1.70;1.40;;;21.80;64.40;;;;;;4940533;28;20766;-50
2023/09/15 04:06:27;;;;;;;2.17;1.97;;;21.80;64.60;;;;;;4926524;29;21079;-50
2023/09/15 04:09:14;;;;;;;2.07;1.57;;;21.80;64.60;;;;;;4945506;28;20802;-50
2023/09/15 04:12:01;;;;;;;2.07;1.87;;;21.80;64.60;;;;;;4926479;29;20471;-49
2023/09/15 04:14:47;;;;;;;2.33;2.10;;;21.80;64.60;;;;;;4926632;29;20475;-49
2023/09/15 04:17:35;;;;;;;1.70;1.30;;;21.80;64.50;;;;;;4930935;29;20471;-50
2023/09/15 04:20:23;;;;;;;1.80;1.60;;;21.80;64.50;;;;;;4933056;28;20954;-50
2023/09/15 04:23:30;;;;;;;1.90;1.70;;;21.80;64.70;;;;;;4944578;28;20545;-49
2023/09/15 04:26:17;;;;;;;1.90;1.40;;;21.80;64.60;;;;;;4934890;28;20842;-50
2023/09/15 04:29:04;;;;;;;3.33;2.07;;;21.80;64.70;;;;;;4940729;28;20455;-49
2023/09/15 04:31:51;;;;;;;2.70;1.70;;;21.70;64.70;;;;;;4947991;28;20625;-49
2023/09/15 04:34:39;;;;;;;1.60;1.50;;;21.70;64.70;;;;;;4941831;28;20702;-49
2023/09/15 04:37:26;;;;;;;2.10;1.40;;;21.80;65.00;;;;;;4947112;28;20849;-50
2023/09/15 04:40:12;;;;;;;1.70;1.60;;;21.70;65.00;;;;;;4947270;28;20567;-50
2023/09/15 04:43:00;;;;;;;1.70;1.30;;;21.70;64.80;;;;;;4933768;28;20482;-50
2023/09/15 04:45:49;;;;;;;1.47;1.33;;;21.70;64.80;;;;;;4945638;28;20474;-50
2023/09/15 04:48:36;;;;;;;1.80;1.50;;;21.70;65.10;;;;;;4946472;28;20583;-49
2023/09/15 04:51:25;;;;;;;1.87;1.60;;;21.70;64.90;;;;;;4945746;28;20521;-50
2023/09/15 04:54:12;;;;;;;2.00;1.60;;;21.70;64.90;;;;;;4948197;28;20451;-50
2023/09/15 04:56:58;;;;;;;1.70;1.37;;;21.70;65.00;;;;;;4945796;28;21068;-50
2023/09/15 04:59:46;;;;;;;2.83;1.50;;;21.70;65.10;;;;;;4942595;28;20438;-51
2023/09/15 05:02:34;;;;;;;2.17;1.20;;;21.70;65.10;;;;;;4930671;28;21079;-50
2023/09/15 05:05:21;;;;;;;4.13;1.87;;;21.70;65.20;;;;;;4936446;28;20607;-51
2023/09/15 05:08:09;;;;;;;1.80;1.67;;;21.60;65.20;;;;;;4939171;28;20794;-50
2023/09/15 05:10:55;;;;;;;1.60;1.33;;;21.60;64.90;;;;;;4946838;28;20518;-50
2023/09/15 05:13:42;;;;;;;3.40;1.90;;;21.60;64.80;;;;;;4942281;28;20483;-51
2023/09/15 05:16:29;;;;;;;1.77;1.43;;;21.60;64.90;;;;;;4955594;28;20481;-50
2023/09/15 05:19:16;;;;;;;4.70;1.47;;;21.60;64.80;;;;;;4965650;28;20549;-50
2023/09/15 05:22:03;;;;;;;2.00;1.80;;;21.60;64.70;;;;;;4938326;28;21114;-49
2023/09/15 05:24:55;;;;;;;2.13;1.80;;;21.60;64.70;;;;;;4947113;28;20588;-50
2023/09/15 05:27:42;;;;;;;1.87;1.17;;;21.60;64.50;;;;;;4978278;28;20492;-51
2023/09/15 05:30:32;;;;;;;1.93;1.73;;;21.60;64.60;;;;;;4980230;28;20481;-51
2023/09/15 05:33:20;;;;;;;2.27;1.70;;;21.60;64.20;;;;;;4981137;28;20529;-49
2023/09/15 05:36:09;;;;;;;2.00;1.37;;;21.60;64.20;;;;;;4966341;28;20478;-51
2023/09/15 05:38:56;;;;;;;2.43;1.77;;;21.50;64.40;;;;;;4982291;28;20819;-50
2023/09/15 05:41:44;;;;;;;1.43;1.10;;;21.60;64.40;;;;;;4983372;28;20524;-50
2023/09/15 05:44:31;;;;;;;1.60;1.50;;;21.50;64.40;;;;;;4981313;28;20954;-50
2023/09/15 05:47:17;;;;;;;1.83;1.57;;;21.50;64.40;;;;;;4978664;28;20464;-50
2023/09/15 05:50:04;;;;;;;2.33;1.40;;;21.50;64.40;;;;;;4977595;28;20810;-50
2023/09/15 05:52:52;;;;;;;3.73;1.47;;;21.50;64.30;;;;;;4982308;28;20815;-50
2023/09/15 05:55:38;;;;;;;1.23;1.13;;;21.50;64.30;;;;;;4981848;28;20469;-50
2023/09/15 05:58:27;;;;;;;1.87;1.70;;;21.50;64.30;;;;;;4975046;28;20925;-49
2023/09/15 06:01:13;;;;;;;3.30;2.00;;;21.50;64.30;;;;;;4983884;28;20485;-50
2023/09/15 06:04:00;;;;;;;1.73;1.63;;;21.50;64.20;;;;;;4973090;28;20639;-50
2023/09/15 06:06:48;;;;;;;3.10;1.87;;;21.50;64.50;;;;;;4985609;28;20837;-49
2023/09/15 06:09:35;;;;;;;2.40;1.90;;;21.40;64.30;;;;;;4983266;28;20442;-50
2023/09/15 06:12:22;;;;;;;1.77;1.53;;;21.40;64.40;;;;;;4980430;28;20617;-49
2023/09/15 06:15:11;;;;;;;2.03;1.83;;;21.40;64.50;;;;;;4988371;28;21004;-49
2023/09/15 06:17:58;;;;;;;1.40;1.20;;;21.40;64.60;;;;;;4974612;28;20474;-50
2023/09/15 06:20:44;;;;;;;1.77;1.40;;;21.40;64.40;;;;;;4979620;28;20841;-50
2023/09/15 06:23:31;;;;;;;1.87;1.20;;;21.40;64.40;;;;;;4983287;28;20445;-50
2023/09/15 06:26:18;;;;;;;1.97;1.87;;;21.40;64.50;;;;;;4985464;28;21112;-50
2023/09/15 06:29:05;;;;;;;1.60;1.20;;;21.40;64.50;;;;;;4987347;28;21000;-50
2023/09/15 06:31:54;;;;;;;1.83;1.50;;;21.40;65.10;;;;;;4996144;28;20500;-52
2023/09/15 06:34:40;;;;;;;3.00;1.97;;;21.40;65.20;;;;;;4980147;28;20460;-51
2023/09/15 06:37:27;;;;;;;1.57;1.27;;;21.40;65.20;;;;;;4985754;28;20842;-49
2023/09/15 06:40:14;;;;;;;2.10;1.60;;;21.40;65.00;;;;;;4987675;28;20569;-50
2023/09/15 06:43:04;;;;;;;1.60;1.40;;;21.40;65.20;;;;;;4978114;28;20480;-50
2023/09/15 06:45:50;;;;;;;2.23;1.30;;;21.30;64.70;;;;;;4984980;28;21245;-49
2023/09/15 06:48:38;;;;;;;2.13;1.83;;;21.30;64.80;;;;;;4987463;28;20468;-50
2023/09/15 06:51:26;;;;;;;1.70;1.50;;;21.30;64.60;;;;;;4988359;28;20538;-50
2023/09/15 06:54:12;;;;;;;1.83;1.73;;;21.30;64.70;;;;;;4986119;28;20814;-51
2023/09/15 06:56:59;;;;;;;1.60;1.30;;;21.30;64.20;;;;;;4979960;28;20492;-50
2023/09/15 06:59:45;;;;;;;1.60;1.47;;;21.30;64.40;;;;;;4990482;28;20547;-50
2023/09/15 07:02:32;;;;;;;5.27;2.07;;;21.30;64.50;;;;;;4975524;28;20547;-51
2023/09/15 07:05:20;;;;;;;1.60;1.30;;;21.20;64.60;;;;;;4982650;28;20453;-51
2023/09/15 07:08:07;;;;;;;2.70;1.40;;;21.30;64.80;;;;;;4985565;28;20453;-51
2023/09/15 07:10:53;;;;;;;2.30;1.53;;;21.20;64.80;;;;;;4978539;28;20515;-50
2023/09/15 07:13:40;;;;;;;2.00;1.60;;;21.20;64.20;;;;;;4987415;28;20488;-50
2023/09/15 07:16:27;;;;;;;2.23;1.60;;;21.20;64.30;;;;;;4982138;28;20469;-50
2023/09/15 07:19:14;;;;;;;2.20;1.87;;;21.30;64.40;;;;;;4980278;28;20460;-49
2023/09/15 07:22:01;;;;;;;2.90;2.00;;;21.20;64.30;;;;;;4987708;28;20497;-49
2023/09/15 07:24:48;;;;;;;1.70;1.60;;;21.20;64.30;;;;;;4983879;28;20492;-49
2023/09/15 07:27:34;;;;;;;2.03;1.70;;;21.20;64.30;;;;;;4978592;28;20472;-49
2023/09/15 07:30:21;;;;;;;2.30;1.60;;;21.30;64.50;;;;;;4988179;28;20441;-51
2023/09/15 07:33:08;;;;;;;2.23;1.37;;;21.30;64.50;;;;;;4987510;28;20522;-50
2023/09/15 07:35:59;;;;;;;2.63;1.73;;;21.30;64.50;;;;;;4989734;28;20511;-49
2023/09/15 07:38:46;;;;;;;2.43;1.63;;;21.30;64.30;;;;;;4987767;28;20745;-50
2023/09/15 07:41:34;;;;;;;2.93;1.87;;;21.30;64.30;;;;;;4976114;28;20473;-50
2023/09/15 07:44:21;;;;;;;2.27;1.70;;;21.30;64.50;;;;;;4984638;28;20465;-50
2023/09/15 07:47:12;;;;;;;2.10;1.87;;;21.30;64.70;;;;;;4981343;28;20557;-50
2023/09/15 07:49:59;;;;;;;2.70;1.60;;;21.30;64.90;;;;;;4977577;28;20978;-50
2023/09/15 07:52:46;;;;;;;2.03;1.57;;;21.30;65.20;;;;;;4981800;28;20481;-51
2023/09/15 07:55:34;;;;;;;1.70;1.40;;;21.30;65.10;;;;;;4982663;28;20465;-49
2023/09/15 07:58:21;;;;;;;1.73;1.40;;;21.30;65.10;;;;;;4983351;28;20452;-50
2023/09/15 08:01:08;;;;;;;2.63;1.73;;;21.30;65.10;;;;;;4979383;28;20461;-50
2023/09/15 08:03:55;;;;;;;1.63;1.30;;;21.30;65.10;;;;;;4980283;28;20504;-51
2023/09/15 08:06:42;;;;;;;1.87;1.50;;;21.30;65.20;;;;;;4983158;28;20580;-51
2023/09/15 08:09:30;;;;;;;3.23;1.43;;;21.30;65.20;;;;;;4987370;28;20449;-49
2023/09/15 08:12:19;;;;;;;2.33;1.50;;;21.30;65.20;;;;;;4985413;28;21049;-50
2023/09/15 08:15:08;;;;;;;1.70;1.47;;;21.20;65.00;;;;;;4981053;28;20457;-51
2023/09/15 08:17:55;;;;;;;2.47;1.67;;;21.30;65.20;;;;;;4988033;28;20568;-50
2023/09/15 08:20:43;;;;;;;1.83;1.30;;;21.30;65.10;;;;;;4980713;28;20991;-49
2023/09/15 08:23:30;;;;;;;1.80;1.60;;;21.30;65.10;;;;;;4978067;28;20909;-51
2023/09/15 08:26:17;;;;;;;1.90;1.60;;;21.30;65.20;;;;;;4982543;28;20768;-49
2023/09/15 08:29:05;;;;;;;1.53;1.43;;;21.30;65.10;;;;;;4980834;28;20429;-50
2023/09/15 08:31:53;;;;;;;2.77;2.10;;;21.30;65.10;;;;;;4982001;28;20608;-50
2023/09/15 08:34:41;;;;;;;2.10;1.73;;;21.30;65.10;;;;;;4976652;28;20809;-50
2023/09/15 08:37:27;;;;;;;2.50;1.80;;;21.30;65.10;;;;;;4981525;28;20473;-49
2023/09/15 08:40:14;;;;;;;3.50;1.70;;;21.30;65.10;;;;;;4981685;28;20514;-50
2023/09/15 08:43:01;;;;;;;1.70;1.40;;;21.30;65.10;;;;;;4978290;28;20837;-52
2023/09/15 08:45:50;;;;;;;2.70;1.60;;;21.30;65.10;;;;;;4978612;28;20484;-50
2023/09/15 08:48:40;;;;;;;1.90;1.37;;;21.30;65.10;;;;;;4988440;28;20472;-50
2023/09/15 08:51:28;;;;;;;2.90;1.60;;;21.30;65.10;;;;;;4979070;28;20974;-50
2023/09/15 08:54:15;;;;;;;2.10;1.40;;;21.30;65.10;;;;;;4986544;28;20449;-51
2023/09/15 08:57:02;;;;;;;1.97;1.57;;;21.30;65.10;;;;;;4975883;28;20469;-50
2023/09/15 08:59:50;;;;;;;2.90;1.52;;;21.30;65.10;;;;;;4978585;28;20435;-50
2023/09/15 09:02:42;;;;;;;3.13;1.73;;;21.40;65.20;;;;;;4983306;28;20221;-50
2023/09/15 09:05:30;;;;;;;2.27;1.50;;;21.40;65.20;;;;;;4977594;28;20939;-50
2023/09/15 09:08:18;;;;;;;2.40;1.33;;;21.40;65.20;;;;;;4975957;28;20445;-49
2023/09/15 09:11:05;;;;;;;1.60;1.40;;;21.40;65.20;;;;;;4979013;28;20477;-50
2023/09/15 09:13:53;;;;;;;1.90;1.37;;;21.40;65.20;;;;;;4976669;28;20468;-50
2023/09/15 09:16:43;;;;;;;2.00;1.43;;;21.30;65.10;;;;;;4980604;28;20473;-51
2023/09/15 09:19:41;;;;;;;1.20;1.10;;;21.30;65.20;;;;;;4977155;28;20822;-50
2023/09/15 09:22:28;;;;;;;2.33;1.63;;;21.30;65.10;;;;;;4981108;28;20498;-50
2023/09/15 09:25:15;;;;;;;1.50;1.23;;;21.30;65.10;;;;;;4978260;28;20586;-51
2023/09/15 09:28:03;;;;;;;2.20;1.30;;;21.30;65.20;;;;;;4981646;28;20433;-50
2023/09/15 09:30:54;;;;;;;1.40;1.00;;;21.30;65.10;;;;;;4987750;28;20480;-50
2023/09/15 09:33:41;;;;;;;2.10;1.27;;;21.30;65.10;;;;;;4978783;28;20449;-51
2023/09/15 09:36:30;;;;;;;2.00;1.53;;;21.30;65.10;;;;;;4980861;28;20941;-50
2023/09/15 09:39:17;;;;;;;2.37;1.60;;;21.30;65.10;;;;;;4975553;28;20466;-49
2023/09/15 09:42:05;;;;;;;1.40;1.30;;;21.30;65.10;;;;;;4988706;28;20512;-50
2023/09/15 09:44:52;;;;;;;2.23;1.33;;;21.30;65.10;;;;;;4979692;28;20456;-51
2023/09/15 09:47:39;;;;;;;2.23;1.53;;;21.30;65.10;;;;;;4981462;28;20976;-51
2023/09/15 09:50:27;;;;;;;1.73;1.23;;;21.30;65.10;;;;;;4981281;28;20499;-50
2023/09/15 09:53:15;;;;;;;1.83;1.50;;;21.30;65.10;;;;;;4984393;28;20458;-50
2023/09/15 09:56:04;;;;;;;1.50;1.20;;;21.30;65.10;;;;;;4981837;28;20476;-52
2023/09/15 09:58:50;;;;;;;1.30;1.13;;;21.30;65.10;;;;;;4982361;28;20645;-50
2023/09/15 10:01:37;;;;;;;1.70;1.57;;;21.30;65.10;;;;;;4972752;28;20527;-50
2023/09/15 10:04:24;;;;;;;1.93;1.30;;;21.30;65.10;;;;;;4983785;28;20465;-49
2023/09/15 10:07:12;;;;;;;1.67;1.27;;;21.20;65.00;;;;;;4985774;28;20480;-49
2023/09/15 10:10:02;;;;;;;2.53;1.50;;;21.20;65.00;;;;;;4986339;28;20475;-50
2023/09/15 10:12:49;;;;;;;1.40;1.00;;;21.30;65.10;;;;;;4984158;28;20627;-49
2023/09/15 10:15:36;;;;;;;1.83;1.27;;;21.20;65.00;;;;;;4983985;28;20540;-50
2023/09/15 10:18:24;;;;;;;1.43;1.17;;;21.20;65.00;;;;;;4989728;28;20476;-49
2023/09/15 10:21:12;;;;;;;2.10;1.53;;;21.20;65.10;;;;;;4982912;28;21018;-50
2023/09/15 10:24:06;;;;;;;1.70;1.37;;;21.20;65.10;;;;;;4990806;28;20452;-50
2023/09/15 10:26:54;;;;;;;1.60;1.40;;;21.20;65.20;;;;;;4986641;28;20849;-49
2023/09/15 10:29:44;;;;;;;2.47;1.50;;;21.20;65.10;;;;;;4986878;28;20472;-49
2023/09/15 10:32:37;;;;;;;1.60;1.20;;;21.20;65.20;;;;;;4987597;28;20483;-49
2023/09/15 10:35:24;;;;;;;2.50;1.27;;;21.20;65.30;;;;;;4983688;28;20468;-50
2023/09/15 10:38:10;;;;;;;1.30;1.10;;;21.20;65.20;;;;;;4982945;28;20601;-50
2023/09/15 10:40:58;;;;;;;1.93;1.47;;;21.20;65.10;;;;;;4986029;28;20881;-49
2023/09/15 10:43:50;;;;;;;2.40;1.50;;;21.20;65.30;;;;;;4978651;28;20942;-50
2023/09/15 10:46:38;;;;;;;1.70;1.47;;;21.20;65.20;;;;;;4987616;28;20592;-51
2023/09/15 10:49:26;;;;;;;1.60;1.33;;;21.20;65.30;;;;;;4983423;28;20602;-51
2023/09/15 10:52:12;;;;;;;2.10;1.13;;;21.20;65.50;;;;;;4985205;28;20842;-51
2023/09/15 10:54:59;;;;;;;1.70;1.20;;;21.20;65.40;;;;;;4985142;28;20457;-49
2023/09/15 10:57:46;;;;;;;1.93;1.30;;;21.20;65.50;;;;;;4976090;28;20484;-49
2023/09/15 11:00:34;;;;;;;1.50;1.30;;;21.20;65.50;;;;;;4984405;28;20997;-51
2023/09/15 11:03:24;;;;;;;1.77;1.10;;;21.20;65.70;;;;;;4987269;28;20476;-50
2023/09/15 11:06:12;;;;;;;2.03;1.57;;;21.20;65.30;;;;;;4984303;28;20483;-52
2023/09/15 11:09:01;;;;;;;1.50;1.27;;;21.20;65.50;;;;;;4980656;28;20433;-50
2023/09/15 11:11:49;;;;;;;1.80;1.23;;;21.20;65.20;;;;;;4982315;28;20476;-49
2023/09/15 11:14:36;;;;;;;1.50;1.30;;;21.20;65.10;;;;;;4988868;28;20473;-50
2023/09/15 11:17:27;;;;;;;2.43;1.20;;;21.20;65.50;;;;;;4984959;28;20976;-50
2023/09/15 11:20:15;;;;;;;1.97;1.27;;;21.20;65.60;;;;;;4986622;28;20480;-50
2023/09/15 11:23:01;;;;;;;2.70;1.10;;;21.20;65.30;;;;;;4975669;28;20475;-50
2023/09/15 11:25:59;;;;;;;2.80;1.67;;;21.20;65.50;;;;;;4981989;28;20622;-49
2023/09/15 11:28:52;;;;;;;1.60;1.40;;;21.20;65.40;;;;;;4985308;28;20862;-49
2023/09/15 11:31:39;;;;;;;1.80;1.27;;;21.20;65.40;;;;;;4985324;28;20468;-50
2023/09/15 11:34:28;;;;;;;1.60;1.13;;;21.20;65.60;;;;;;4979941;28;20995;-50
2023/09/15 11:37:15;;;;;;;1.77;1.20;;;21.20;65.70;;;;;;4986651;28;20920;-51
2023/09/15 11:40:03;;;;;;;1.90;1.37;;;21.20;65.60;;;;;;4983962;28;20430;-50
2023/09/15 11:42:53;;;;;;;1.73;1.40;;;21.20;65.60;;;;;;4980580;28;20835;-50
2023/09/15 11:45:41;;;;;;;1.80;1.40;;;21.20;65.40;;;;;;4989825;28;21097;-49
2023/09/15 11:48:28;;;;;;;1.57;1.03;;;21.20;65.70;;;;;;4984669;28;20909;-51
2023/09/15 11:51:17;;;;;;;1.30;1.10;;;21.20;65.50;;;;;;4978079;28;21080;-49
2023/09/15 11:54:06;;;;;;;1.57;1.47;;;21.20;65.40;;;;;;4986019;28;20449;-49
2023/09/15 11:56:54;;;;;;;1.80;1.40;;;21.20;65.50;;;;;;4977582;28;20892;-49
2023/09/15 11:59:41;;;;;;;1.90;1.67;;;21.20;65.50;;;;;;4981205;28;20555;-49
2023/09/15 12:02:27;;;;;;;1.27;1.00;;;21.30;65.10;;;;;;4981204;28;20731;-49
2023/09/15 12:05:15;;;;;;;1.87;1.30;;;21.30;65.10;;;;;;4985584;28;20456;-50
2023/09/15 12:08:04;;;;;;;2.13;1.50;;;21.30;65.10;;;;;;4982463;28;20469;-50
2023/09/15 12:10:51;;;;;;;3.00;1.73;;;21.30;66.40;;;;;;4987208;28;20496;-50
2023/09/15 12:14:06;;;;;;;2.10;1.80;;;21.30;65.10;;;;;;4981464;28;20441;-49
2023/09/15 12:16:58;;;;;;;1.70;1.60;;;21.30;62.60;;;;;;4982920;28;20504;-49
2023/09/15 12:19:45;;;;;;;2.30;1.73;;;21.30;63.00;;;;;;4981077;28;20567;-48
2023/09/15 12:22:32;;;;;;;4.47;1.50;;;21.30;63.10;;;;;;4972387;28;20476;-49
2023/09/15 12:25:21;;;;;;;2.40;1.70;;;21.30;63.20;;;;;;4972287;28;20614;-50
2023/09/15 12:28:08;;;;;;;1.83;1.67;;;21.30;63.50;;;;;;4985126;28;20445;-50
2023/09/15 12:30:58;;;;;;;1.93;1.37;;;21.30;63.80;;;;;;4971865;28;21097;-50
2023/09/15 12:33:44;;;;;;;1.70;1.27;;;21.30;64.00;;;;;;4980690;28;21095;-51
2023/09/15 12:36:31;;;;;;;2.40;1.90;;;21.30;64.20;;;;;;4983573;28;20535;-50
2023/09/15 12:39:18;;;;;;;2.07;1.87;;;21.30;64.30;;;;;;4981784;28;20567;-50
2023/09/15 12:42:07;;;;;;;1.97;1.40;;;21.30;64.50;;;;;;4967844;28;20938;-50
2023/09/15 12:45:07;;;;;;;2.60;1.37;;;21.30;64.60;;;;;;4978096;28;20456;-50
2023/09/15 12:47:54;;;;;;;2.17;1.30;;;21.30;64.70;;;;;;4974982;28;20485;-50
2023/09/15 12:50:41;;;;;;;2.00;1.50;;;21.40;65.00;;;;;;4961723;28;20500;-51
2023/09/15 12:53:28;;;;;;;1.77;1.67;;;21.40;65.10;;;;;;4967609;28;20600;-50
2023/09/15 12:56:14;;;;;;;2.33;1.70;;;21.40;65.30;;;;;;4977902;28;20504;-50
2023/09/15 12:59:04;;;;;;;2.97;1.73;;;21.40;65.20;;;;;;4977679;28;20504;-50
2023/09/15 13:01:50;;;;;;;2.30;1.90;;;21.40;64.70;;;;;;4976558;28;20856;-49
2023/09/15 13:04:39;;;;;;;1.27;1.07;;;21.40;65.20;;;;;;4977307;28;20500;-50
2023/09/15 13:07:26;;;;;;;2.60;1.57;;;21.40;64.70;;;;;;4977759;28;20485;-50
2023/09/15 13:10:13;;;;;;;1.60;1.40;;;21.40;65.20;;;;;;4978806;28;20512;-50
2023/09/15 13:12:59;;;;;;;4.23;1.63;;;21.40;65.20;;;;;;4975532;28;20489;-50
2023/09/15 13:15:48;;;;;;;1.70;1.40;;;21.50;64.50;;;;;;4981674;28;21014;-49
2023/09/15 13:18:34;;;;;;;3.00;1.40;;;21.50;66.50;;;;;;4982797;28;20481;-49
2023/09/15 13:21:21;;;;;;;1.57;1.33;;;21.50;65.00;;;;;;4981843;28;20856;-50
2023/09/15 13:24:08;;;;;;;2.57;1.73;;;21.50;65.20;;;;;;4978458;28;20812;-50
2023/09/15 13:26:54;;;;;;;2.43;1.80;;;21.50;65.20;;;;;;4976038;28;20481;-51
2023/09/15 13:29:41;;;;;;;1.63;1.20;;;21.50;65.30;;;;;;4982164;28;20501;-50
2023/09/15 13:32:29;;;;;;;1.70;1.40;;;21.50;64.90;;;;;;4983995;28;20484;-49
2023/09/15 13:35:16;;;;;;;1.93;1.30;;;21.50;65.10;;;;;;4976999;28;20593;-50
2023/09/15 13:38:02;;;;;;;2.40;1.80;;;21.50;64.90;;;;;;4978428;28;20612;-50
2023/09/15 13:40:49;;;;;;;2.30;1.20;;;21.50;64.20;;;;;;4980377;28;20508;-50
2023/09/15 13:43:35;;;;;;;1.73;1.30;;;21.60;64.70;;;;;;4980629;28;20457;-51
2023/09/15 13:46:22;;;;;;;1.40;1.10;;;21.60;64.60;;;;;;4973529;28;21064;-50
2023/09/15 13:49:11;;;;;;;1.40;1.30;;;21.60;64.80;;;;;;4978341;28;20448;-50
2023/09/15 13:51:57;;;;;;;1.70;1.40;;;21.60;65.00;;;;;;4977645;28;20479;-50
2023/09/15 13:54:44;;;;;;;1.93;1.40;;;21.60;65.20;;;;;;4968689;28;20465;-50
2023/09/15 13:57:31;;;;;;;2.17;1.60;;;21.60;65.20;;;;;;4980191;28;20485;-50
2023/09/15 14:00:19;;;;;;;1.87;1.23;;;21.70;64.60;;;;;;4974599;28;20465;-50
2023/09/15 14:03:05;;;;;;;1.93;1.50;;;21.70;64.50;;;;;;4977783;28;20472;-50
2023/09/15 14:05:54;;;;;;;1.70;1.60;;;21.70;64.70;;;;;;4976170;28;20481;-49
2023/09/15 14:08:41;;;;;;;2.30;1.47;;;21.70;64.80;;;;;;4979408;28;20460;-50
2023/09/15 14:11:28;;;;;;;1.40;1.20;;;21.70;65.20;;;;;;4974903;28;21218;-50
2023/09/15 14:14:14;;;;;;;2.40;1.57;;;21.70;65.20;;;;;;4982603;28;20433;-49
2023/09/15 14:17:01;;;;;;;1.47;1.23;;;21.70;65.40;;;;;;4977080;28;20509;-52
2023/09/15 14:19:48;;;;;;;1.63;1.03;;;21.70;65.50;;;;;;4980315;28;20825;-50
2023/09/15 14:22:36;;;;;;;2.60;1.57;;;21.70;65.40;;;;;;4980177;28;20847;-49
2023/09/15 14:25:23;;;;;;;2.00;1.43;;;21.70;65.50;;;;;;4980509;28;20803;-50
2023/09/15 14:28:11;;;;;;;1.67;1.40;;;21.70;65.50;;;;;;4980242;28;20446;-50
2023/09/15 14:31:03;;;;;;;2.30;1.57;;;21.70;65.50;;;;;;4977673;28;20484;-49
2023/09/15 14:33:50;;;;;;;1.73;1.40;;;21.70;65.30;;;;;;4969495;28;20460;-50
2023/09/15 14:36:36;;;;;;;3.20;1.40;;;21.70;65.50;;;;;;4973659;28;20713;-49
2023/09/15 14:39:25;;;;;;;2.03;1.40;;;21.80;64.80;;;;;;4979040;28;20473;-50
2023/09/15 14:42:14;;;;;;;2.40;2.20;;;21.80;64.20;;;;;;4974258;28;20501;-52
2023/09/15 14:45:02;;;;;;;1.63;1.53;;;21.80;63.90;;;;;;4972816;28;20904;-51
2023/09/15 14:47:49;;;;;;;2.77;2.10;;;21.80;64.10;;;;;;4979876;28;20487;-50
2023/09/15 14:50:36;;;;;;;1.70;1.60;;;21.80;64.30;;;;;;4975275;28;20541;-49